createdAt,value
2023-04-20T00:00:34.759Z,0.00
2023-04-20T00:01:34.755Z,0.00
2023-04-20T00:02:34.848Z,0.00
2023-04-20T00:03:34.908Z,0.00
2023-04-20T00:04:34.787Z,0.00
2023-04-20T00:05:34.730Z,0.00
2023-04-20T00:06:34.708Z,0.00
2023-04-20T00:07:34.717Z,0.00
2023-04-20T00:08:34.708Z,0.00
2023-04-20T00:09:34.679Z,0.00
2023-04-20T00:10:34.671Z,0.00
2023-04-20T00:11:34.662Z,0.00
2023-04-20T00:12:34.666Z,0.00
2023-04-20T00:13:34.649Z,0.00
2023-04-20T00:14:34.649Z,0.00
2023-04-20T00:15:34.632Z,0.00
2023-04-20T00:16:34.693Z,0.00
2023-04-20T00:17:34.663Z,0.00
2023-04-20T00:18:34.604Z,0.00
2023-04-20T00:19:34.606Z,0.00
2023-04-20T00:20:34.595Z,0.00
2023-04-20T00:21:34.578Z,0.00
2023-04-20T00:22:34.580Z,0.00
2023-04-20T00:23:34.566Z,0.00
2023-04-20T00:24:34.562Z,0.00
2023-04-20T00:25:34.541Z,0.00
2023-04-20T00:26:34.541Z,0.00
2023-04-20T00:27:34.535Z,0.00
2023-04-20T00:28:34.515Z,0.00
2023-04-20T00:29:34.511Z,0.00
2023-04-20T00:30:34.518Z,0.00
2023-04-20T00:31:34.488Z,0.00
2023-04-20T00:32:34.531Z,0.00
2023-04-20T00:33:34.471Z,0.00
2023-04-20T00:34:34.455Z,0.00
2023-04-20T00:35:34.471Z,0.00
2023-04-20T00:36:34.460Z,0.00
2023-04-20T00:37:34.503Z,0.00
2023-04-20T00:38:34.434Z,0.00
2023-04-20T00:39:34.438Z,0.00
2023-04-20T00:40:34.409Z,0.00
2023-04-20T00:41:34.406Z,0.00
2023-04-20T00:42:34.411Z,0.00
2023-04-20T00:43:34.427Z,0.00
2023-04-20T00:44:34.395Z,0.00
2023-04-20T00:45:34.364Z,0.00
2023-04-20T00:46:34.410Z,0.00
2023-04-20T00:47:34.387Z,0.00
2023-04-20T00:48:34.368Z,0.00
2023-04-20T00:49:34.329Z,0.00
2023-04-20T00:50:34.331Z,0.00
2023-04-20T00:51:34.326Z,0.00
2023-04-20T00:52:34.327Z,0.00
2023-04-20T00:53:34.305Z,0.00
2023-04-20T00:54:34.318Z,0.00
2023-04-20T00:55:34.273Z,0.00
2023-04-20T00:56:34.334Z,0.00
2023-04-20T00:57:34.290Z,0.00
2023-04-20T00:58:34.248Z,0.00
2023-04-20T00:59:34.238Z,0.00
2023-04-20T01:00:34.233Z,0.00
2023-04-20T01:01:34.226Z,0.00
2023-04-20T01:02:34.320Z,0.00
2023-04-20T01:03:34.458Z,0.00
2023-04-20T01:04:34.239Z,0.00
2023-04-20T01:05:34.182Z,0.00
2023-04-20T01:06:34.208Z,0.00
2023-04-20T01:07:34.189Z,0.00
2023-04-20T01:08:34.208Z,0.00
2023-04-20T01:09:34.172Z,0.00
2023-04-20T01:10:34.137Z,0.00
2023-04-20T01:11:34.133Z,0.00
2023-04-20T01:12:34.122Z,0.00
2023-04-20T01:13:34.123Z,0.00
2023-04-20T01:14:34.139Z,0.00
2023-04-20T01:15:34.097Z,0.00
2023-04-20T01:16:34.193Z,0.00
2023-04-20T01:17:34.104Z,0.00
2023-04-20T01:18:34.090Z,0.00
2023-04-20T01:19:34.066Z,0.00
2023-04-20T01:20:34.056Z,0.00
2023-04-20T01:21:34.084Z,0.00
2023-04-20T01:22:34.035Z,0.00
2023-04-20T01:23:34.034Z,0.00
2023-04-20T01:24:34.051Z,0.00
2023-04-20T01:25:34.004Z,0.00
2023-04-20T01:26:34.008Z,0.00
2023-04-20T01:27:33.983Z,0.00
2023-04-20T01:28:33.991Z,0.00
2023-04-20T01:29:33.976Z,0.00
2023-04-20T01:30:33.973Z,0.00
2023-04-20T01:31:34.062Z,0.00
2023-04-20T01:32:33.980Z,0.00
2023-04-20T01:33:33.952Z,0.00
2023-04-20T01:34:33.928Z,0.00
2023-04-20T01:35:33.922Z,0.00
2023-04-20T01:36:33.926Z,0.00
2023-04-20T01:37:33.905Z,0.00
2023-04-20T01:38:33.902Z,0.00
2023-04-20T01:39:33.920Z,0.00
2023-04-20T01:40:33.873Z,0.00
2023-04-20T01:41:33.892Z,0.00
2023-04-20T01:42:33.885Z,0.00
2023-04-20T01:43:33.859Z,0.00
2023-04-20T01:44:33.852Z,0.00
2023-04-20T01:45:33.837Z,0.00
2023-04-20T01:46:33.880Z,0.00
2023-04-20T01:47:33.842Z,0.00
2023-04-20T01:48:33.834Z,0.00
2023-04-20T01:49:33.805Z,0.00
2023-04-20T01:50:33.787Z,0.00
2023-04-20T01:51:33.775Z,0.00
2023-04-20T01:52:33.769Z,0.00
2023-04-20T01:53:33.775Z,0.00
2023-04-20T01:54:33.754Z,0.00
2023-04-20T01:55:33.740Z,0.00
2023-04-20T01:56:33.733Z,0.00
2023-04-20T01:57:33.732Z,0.00
2023-04-20T01:58:33.727Z,0.00
2023-04-20T01:59:33.710Z,0.00
2023-04-20T02:00:33.753Z,0.00
2023-04-20T02:01:33.689Z,0.00
2023-04-20T02:02:33.795Z,0.00
2023-04-20T02:03:33.795Z,0.00
2023-04-20T02:04:33.661Z,0.00
2023-04-20T02:05:33.673Z,0.00
2023-04-20T02:06:33.645Z,0.00
2023-04-20T02:07:33.642Z,0.00
2023-04-20T02:08:33.651Z,0.00
2023-04-20T02:09:33.634Z,0.00
2023-04-20T02:10:33.605Z,0.00
2023-04-20T02:11:33.613Z,0.00
2023-04-20T02:12:33.600Z,0.00
2023-04-20T02:13:33.593Z,0.00
2023-04-20T02:14:33.578Z,0.00
2023-04-20T02:15:33.563Z,0.00
2023-04-20T02:16:33.633Z,0.00
2023-04-20T02:17:33.595Z,0.00
2023-04-20T02:18:33.544Z,0.00
2023-04-20T02:19:33.525Z,0.00
2023-04-20T02:20:33.518Z,0.00
2023-04-20T02:21:33.505Z,0.00
2023-04-20T02:22:33.489Z,0.00
2023-04-20T02:23:33.495Z,0.00
2023-04-20T02:24:33.479Z,0.00
2023-04-20T02:25:33.474Z,0.00
2023-04-20T02:26:33.457Z,0.00
2023-04-20T02:27:33.453Z,0.00
2023-04-20T02:28:33.450Z,0.00
2023-04-20T02:29:33.435Z,0.00
2023-04-20T02:30:33.432Z,0.00
2023-04-20T02:31:33.468Z,0.00
2023-04-20T02:32:33.454Z,0.00
2023-04-20T02:33:33.409Z,0.00
2023-04-20T02:34:33.391Z,0.00
2023-04-20T02:35:33.386Z,0.00
2023-04-20T02:36:33.391Z,0.00
2023-04-20T02:37:33.368Z,0.00
2023-04-20T02:38:33.397Z,0.00
2023-04-20T02:39:33.340Z,0.00
2023-04-20T02:40:33.338Z,0.00
2023-04-20T02:41:33.325Z,0.00
2023-04-20T02:42:33.316Z,0.00
2023-04-20T02:43:33.315Z,0.00
2023-04-20T02:44:33.298Z,0.00
2023-04-20T02:45:33.299Z,0.00
2023-04-20T02:46:33.304Z,0.00
2023-04-20T02:47:33.328Z,0.00
2023-04-20T02:48:33.273Z,0.00
2023-04-20T02:49:33.253Z,0.00
2023-04-20T02:50:33.241Z,0.00
2023-04-20T02:51:33.242Z,0.00
2023-04-20T02:52:33.219Z,0.00
2023-04-20T02:53:33.224Z,0.00
2023-04-20T02:54:33.217Z,0.00
2023-04-20T02:55:33.202Z,0.00
2023-04-20T02:56:33.192Z,0.00
2023-04-20T02:57:33.192Z,0.00
2023-04-20T02:58:33.190Z,0.00
2023-04-20T02:59:33.164Z,0.00
2023-04-20T03:00:33.166Z,0.00
2023-04-20T03:01:33.193Z,0.00
2023-04-20T03:02:33.294Z,0.00
2023-04-20T03:03:33.304Z,0.00
2023-04-20T03:04:33.280Z,0.00
2023-04-20T03:05:33.113Z,0.00
2023-04-20T03:06:33.114Z,0.00
2023-04-20T03:07:33.103Z,0.00
2023-04-20T03:08:33.097Z,0.00
2023-04-20T03:09:33.081Z,0.00
2023-04-20T03:10:33.063Z,0.00
2023-04-20T03:11:33.055Z,0.00
2023-04-20T03:12:33.054Z,0.00
2023-04-20T03:13:33.093Z,0.00
2023-04-20T03:14:33.025Z,0.00
2023-04-20T03:15:33.030Z,0.00
2023-04-20T03:16:33.022Z,0.00
2023-04-20T03:17:33.038Z,0.00
2023-04-20T03:18:33.001Z,0.00
2023-04-20T03:19:32.976Z,0.00
2023-04-20T03:20:32.965Z,0.00
2023-04-20T03:21:32.982Z,0.00
2023-04-20T03:22:32.953Z,0.00
2023-04-20T03:23:32.959Z,0.00
2023-04-20T03:24:32.926Z,0.00
2023-04-20T03:25:32.929Z,0.00
2023-04-20T03:26:32.979Z,0.00
2023-04-20T03:27:32.904Z,0.00
2023-04-20T03:28:32.909Z,0.00
2023-04-20T03:29:32.888Z,0.00
2023-04-20T03:30:32.880Z,0.00
2023-04-20T03:31:32.952Z,0.00
2023-04-20T03:32:32.932Z,0.00
2023-04-20T03:33:32.861Z,0.00
2023-04-20T03:34:32.841Z,0.00
2023-04-20T03:35:32.830Z,0.00
2023-04-20T03:36:32.824Z,0.00
2023-04-20T03:37:32.813Z,0.00
2023-04-20T03:38:32.817Z,0.00
2023-04-20T03:39:32.791Z,0.00
2023-04-20T03:40:32.787Z,0.00
2023-04-20T03:41:32.797Z,0.00
2023-04-20T03:42:32.773Z,0.00
2023-04-20T03:43:32.775Z,0.00
2023-04-20T03:44:32.751Z,0.00
2023-04-20T03:45:32.750Z,0.00
2023-04-20T03:46:32.742Z,0.00
2023-04-20T03:47:33.837Z,0.00
2023-04-20T03:48:32.728Z,0.00
2023-04-20T03:49:32.706Z,0.00
2023-04-20T03:50:32.704Z,0.00
2023-04-20T03:51:32.698Z,0.00
2023-04-20T03:52:32.696Z,0.00
2023-04-20T03:53:32.701Z,0.00
2023-04-20T03:54:32.663Z,0.00
2023-04-20T03:55:32.655Z,0.00
2023-04-20T03:56:32.648Z,0.00
2023-04-20T03:57:32.639Z,0.00
2023-04-20T03:58:32.643Z,0.00
2023-04-20T03:59:32.636Z,0.00
2023-04-20T04:00:32.615Z,0.00
2023-04-20T04:01:32.603Z,0.00
2023-04-20T04:02:32.690Z,0.00
2023-04-20T04:03:32.792Z,0.00
2023-04-20T04:04:32.900Z,0.00
2023-04-20T04:05:32.679Z,0.00
2023-04-20T04:06:32.561Z,0.00
2023-04-20T04:07:32.552Z,0.00
2023-04-20T04:08:32.575Z,0.00
2023-04-20T04:09:32.538Z,0.00
2023-04-20T04:10:32.521Z,0.00
2023-04-20T04:11:32.518Z,0.00
2023-04-20T04:12:32.501Z,0.00
2023-04-20T04:13:34.449Z,0.00
2023-04-20T04:14:33.530Z,0.00
2023-04-20T04:15:32.472Z,0.00
2023-04-20T04:16:32.570Z,0.00
2023-04-20T04:17:32.466Z,0.00
2023-04-20T04:18:32.517Z,0.00
2023-04-20T04:19:32.434Z,0.00
2023-04-20T04:20:32.429Z,0.00
2023-04-20T04:21:32.416Z,0.00
2023-04-20T04:22:32.409Z,0.00
2023-04-20T04:24:04.316Z,0.00
2023-04-20T04:24:32.385Z,0.00
2023-04-20T04:25:32.383Z,0.00
2023-04-20T04:26:32.374Z,0.00
2023-04-20T04:27:32.360Z,0.00
2023-04-20T04:28:32.362Z,0.00
2023-04-20T04:29:32.360Z,0.00
2023-04-20T04:30:32.333Z,0.00
2023-04-20T04:31:32.373Z,0.00
2023-04-20T04:32:32.331Z,0.00
2023-04-20T04:33:32.309Z,0.00
2023-04-20T04:34:32.306Z,0.00
2023-04-20T04:35:32.295Z,0.00
2023-04-20T04:36:33.277Z,0.00
2023-04-20T04:37:32.273Z,0.00
2023-04-20T04:38:32.259Z,0.00
2023-04-20T04:39:32.259Z,0.00
2023-04-20T04:40:32.245Z,0.00
2023-04-20T04:41:32.230Z,0.00
2023-04-20T04:42:32.223Z,0.00
2023-04-20T04:43:32.213Z,0.00
2023-04-20T04:44:32.264Z,0.00
2023-04-20T04:45:32.192Z,0.00
2023-04-20T04:46:32.298Z,0.00
2023-04-20T04:47:32.211Z,0.00
2023-04-20T04:48:32.172Z,0.00
2023-04-20T04:49:32.172Z,0.00
2023-04-20T04:50:32.145Z,0.00
2023-04-20T04:51:32.134Z,5.62
2023-04-20T04:52:32.128Z,5.62
2023-04-20T04:53:32.124Z,5.62
2023-04-20T04:54:32.120Z,5.62
2023-04-20T04:55:32.109Z,5.62
2023-04-20T04:56:32.090Z,5.62
2023-04-20T04:57:32.082Z,11.25
2023-04-20T04:58:32.070Z,11.25
2023-04-20T04:59:32.074Z,11.25
2023-04-20T05:00:32.052Z,16.88
2023-04-20T05:01:32.069Z,16.88
2023-04-20T05:02:32.410Z,11.25
2023-04-20T05:03:32.123Z,11.25
2023-04-20T05:04:32.150Z,11.25
2023-04-20T05:05:32.012Z,11.25
2023-04-20T05:06:32.003Z,11.25
2023-04-20T05:07:31.996Z,11.25
2023-04-20T05:08:31.986Z,16.88
2023-04-20T05:09:31.991Z,16.88
2023-04-20T05:10:31.962Z,16.88
2023-04-20T05:11:31.956Z,11.25
2023-04-20T05:12:31.945Z,11.25
2023-04-20T05:13:31.940Z,16.88
2023-04-20T05:14:31.952Z,16.88
2023-04-20T05:15:31.950Z,16.88
2023-04-20T05:16:31.930Z,16.88
2023-04-20T05:17:31.967Z,16.88
2023-04-20T05:18:31.897Z,16.88
2023-04-20T05:19:31.890Z,16.88
2023-04-20T05:20:31.874Z,16.88
2023-04-20T05:21:31.858Z,16.88
2023-04-20T05:22:31.850Z,22.50
2023-04-20T05:23:31.841Z,16.88
2023-04-20T05:24:31.836Z,16.88
2023-04-20T05:25:31.819Z,16.88
2023-04-20T05:26:31.823Z,16.88
2023-04-20T05:27:31.805Z,16.88
2023-04-20T05:28:31.799Z,16.88
2023-04-20T05:29:31.795Z,16.88
2023-04-20T05:30:31.774Z,22.50
2023-04-20T05:31:31.794Z,22.50
2023-04-20T05:32:31.832Z,16.88
2023-04-20T05:33:31.744Z,16.88
2023-04-20T05:34:31.748Z,16.88
2023-04-20T05:35:31.733Z,16.88
2023-04-20T05:36:31.722Z,22.50
2023-04-20T05:37:31.714Z,22.50
2023-04-20T05:38:31.706Z,16.88
2023-04-20T05:39:31.700Z,16.88
2023-04-20T05:40:32.699Z,16.88
2023-04-20T05:41:31.682Z,16.88
2023-04-20T05:42:31.721Z,16.88
2023-04-20T05:43:31.664Z,16.88
2023-04-20T05:44:31.666Z,16.88
2023-04-20T05:45:31.674Z,16.88
2023-04-20T05:46:31.652Z,16.88
2023-04-20T05:47:31.682Z,16.88
2023-04-20T05:48:31.620Z,16.88
2023-04-20T05:49:31.641Z,16.88
2023-04-20T05:50:31.604Z,11.25
2023-04-20T05:51:31.603Z,11.25
2023-04-20T05:52:31.581Z,11.25
2023-04-20T05:53:31.574Z,11.25
2023-04-20T05:54:31.587Z,16.88
2023-04-20T05:55:31.559Z,16.88
2023-04-20T05:56:31.559Z,16.88
2023-04-20T05:57:31.536Z,16.88
2023-04-20T05:58:31.532Z,11.25
2023-04-20T05:59:31.541Z,11.25
2023-04-20T06:00:31.523Z,11.25
2023-04-20T06:01:31.516Z,16.88
2023-04-20T06:02:31.616Z,16.88
2023-04-20T06:03:31.637Z,22.50
2023-04-20T06:04:31.939Z,16.88
2023-04-20T06:05:31.504Z,22.50
2023-04-20T06:06:31.482Z,22.50
2023-04-20T06:07:31.456Z,16.88
2023-04-20T06:08:31.447Z,16.88
2023-04-20T06:09:31.450Z,16.88
2023-04-20T06:10:31.433Z,16.88
2023-04-20T06:11:31.445Z,16.88
2023-04-20T06:12:31.415Z,11.25
2023-04-20T06:13:31.420Z,11.25
2023-04-20T06:14:31.405Z,11.25
2023-04-20T06:15:31.470Z,11.25
2023-04-20T06:16:31.460Z,11.25
2023-04-20T06:17:31.418Z,11.25
2023-04-20T06:18:31.390Z,11.25
2023-04-20T06:19:31.355Z,16.88
2023-04-20T06:20:31.335Z,16.88
2023-04-20T06:21:31.330Z,22.50
2023-04-20T06:22:31.325Z,22.50
2023-04-20T06:23:31.333Z,22.50
2023-04-20T06:24:31.336Z,22.50
2023-04-20T06:25:31.298Z,22.50
2023-04-20T06:26:31.294Z,16.88
2023-04-20T06:27:31.279Z,16.88
2023-04-20T06:28:31.266Z,16.88
2023-04-20T06:29:31.280Z,22.50
2023-04-20T06:30:31.251Z,22.50
2023-04-20T06:31:31.280Z,22.50
2023-04-20T06:32:31.251Z,28.12
2023-04-20T06:33:31.218Z,28.12
2023-04-20T06:34:31.228Z,22.50
2023-04-20T06:35:31.206Z,22.50
2023-04-20T06:36:31.228Z,22.50
2023-04-20T06:37:31.190Z,28.12
2023-04-20T06:38:31.183Z,33.75
2023-04-20T06:39:31.192Z,33.75
2023-04-20T06:40:31.162Z,39.38
2023-04-20T06:41:31.170Z,33.75
2023-04-20T06:42:31.158Z,33.75
2023-04-20T06:43:31.134Z,39.38
2023-04-20T06:44:31.136Z,39.38
2023-04-20T06:45:32.829Z,45.00
2023-04-20T06:46:31.130Z,45.00
2023-04-20T06:47:31.162Z,50.62
2023-04-20T06:48:32.768Z,50.62
2023-04-20T06:49:32.091Z,56.25
2023-04-20T06:50:32.085Z,73.12
2023-04-20T06:51:31.068Z,78.75
2023-04-20T06:52:31.058Z,78.75
2023-04-20T06:53:31.044Z,90.00
2023-04-20T06:54:31.046Z,95.62
2023-04-20T06:55:31.030Z,101.25
2023-04-20T06:56:31.008Z,112.50
2023-04-20T06:57:31.013Z,118.12
2023-04-20T06:58:31.004Z,118.12
2023-04-20T06:59:31.000Z,112.50
2023-04-20T07:00:30.996Z,112.50
2023-04-20T07:01:31.023Z,106.88
2023-04-20T07:02:31.002Z,106.88
2023-04-20T07:03:31.001Z,101.25
2023-04-20T07:04:30.987Z,101.25
2023-04-20T07:05:30.938Z,95.62
2023-04-20T07:06:30.929Z,90.00
2023-04-20T07:07:30.921Z,90.00
2023-04-20T07:08:30.917Z,90.00
2023-04-20T07:09:30.914Z,90.00
2023-04-20T07:10:30.993Z,90.00
2023-04-20T07:11:30.889Z,84.38
2023-04-20T07:12:30.871Z,78.75
2023-04-20T07:13:33.423Z,73.12
2023-04-20T07:14:31.867Z,67.50
2023-04-20T07:15:30.851Z,67.50
2023-04-20T07:16:30.888Z,67.50
2023-04-20T07:17:30.855Z,67.50
2023-04-20T07:18:31.544Z,56.25
2023-04-20T07:19:30.831Z,50.62
2023-04-20T07:20:30.801Z,50.62
2023-04-20T07:21:30.808Z,50.62
2023-04-20T07:22:30.787Z,45.00
2023-04-20T07:23:30.781Z,45.00
2023-04-20T07:24:30.783Z,39.38
2023-04-20T07:25:30.879Z,33.75
2023-04-20T07:26:30.861Z,33.75
2023-04-20T07:27:30.750Z,33.75
2023-04-20T07:28:30.733Z,39.38
2023-04-20T07:29:32.799Z,33.75
2023-04-20T07:30:30.717Z,33.75
2023-04-20T07:31:31.149Z,33.75
2023-04-20T07:32:30.774Z,33.75
2023-04-20T07:33:30.692Z,39.38
2023-04-20T07:34:30.709Z,39.38
2023-04-20T07:35:30.689Z,39.38
2023-04-20T07:36:30.669Z,50.62
2023-04-20T07:37:30.659Z,56.25
2023-04-20T07:38:30.651Z,56.25
2023-04-20T07:39:30.658Z,67.50
2023-04-20T07:40:30.632Z,61.88
2023-04-20T07:41:30.626Z,61.88
2023-04-20T07:42:30.798Z,73.12
2023-04-20T07:43:30.613Z,84.38
2023-04-20T07:44:30.843Z,78.75
2023-04-20T07:45:30.635Z,67.50
2023-04-20T07:46:30.581Z,61.88
2023-04-20T07:47:30.591Z,61.88
2023-04-20T07:48:30.580Z,67.50
2023-04-20T07:49:30.563Z,67.50
2023-04-20T07:50:30.542Z,67.50
2023-04-20T07:51:30.539Z,61.88
2023-04-20T07:52:30.540Z,78.75
2023-04-20T07:53:30.528Z,90.00
2023-04-20T07:54:30.524Z,90.00
2023-04-20T07:55:30.508Z,95.62
2023-04-20T07:56:30.496Z,95.62
2023-04-20T07:57:30.489Z,95.62
2023-04-20T07:58:30.474Z,106.88
2023-04-20T07:59:30.483Z,101.25
2023-04-20T08:00:30.457Z,112.50
2023-04-20T08:01:30.455Z,118.12
2023-04-20T08:02:30.750Z,135.00
2023-04-20T08:03:30.583Z,151.88
2023-04-20T08:04:30.748Z,163.12
2023-04-20T08:05:30.564Z,163.12
2023-04-20T08:06:30.418Z,180.00
2023-04-20T08:07:30.409Z,185.62
2023-04-20T08:08:30.404Z,174.38
2023-04-20T08:09:30.408Z,180.00
2023-04-20T08:10:30.379Z,208.12
2023-04-20T08:11:30.365Z,180.00
2023-04-20T08:12:30.357Z,135.00
2023-04-20T08:13:30.348Z,112.50
2023-04-20T08:14:30.392Z,95.62
2023-04-20T08:15:30.407Z,106.88
2023-04-20T08:16:30.373Z,73.12
2023-04-20T08:17:31.371Z,67.50
2023-04-20T08:18:30.306Z,73.12
2023-04-20T08:19:30.350Z,67.50
2023-04-20T08:20:30.284Z,56.25
2023-04-20T08:21:30.279Z,56.25
2023-04-20T08:22:30.520Z,67.50
2023-04-20T08:23:30.260Z,73.12
2023-04-20T08:24:30.254Z,73.12
2023-04-20T08:25:30.251Z,73.12
2023-04-20T08:26:30.248Z,73.12
2023-04-20T08:27:30.284Z,61.88
2023-04-20T08:28:33.893Z,56.25
2023-04-20T08:29:31.226Z,50.62
2023-04-20T08:30:30.304Z,50.62
2023-04-20T08:31:30.241Z,45.00
2023-04-20T08:32:30.212Z,50.62
2023-04-20T08:33:30.176Z,61.88
2023-04-20T08:34:30.158Z,61.88
2023-04-20T08:35:30.160Z,50.62
2023-04-20T08:36:30.154Z,50.62
2023-04-20T08:37:32.547Z,73.12
2023-04-20T08:38:34.217Z,73.12
2023-04-20T08:39:31.115Z,56.25
2023-04-20T08:40:30.136Z,50.62
2023-04-20T08:41:30.099Z,45.00
2023-04-20T08:42:30.095Z,39.38
2023-04-20T08:43:30.081Z,33.75
2023-04-20T08:44:30.071Z,33.75
2023-04-20T08:45:30.073Z,33.75
2023-04-20T08:46:30.105Z,39.38
2023-04-20T08:47:30.067Z,50.62
2023-04-20T08:48:31.862Z,39.38
2023-04-20T08:49:30.027Z,45.00
2023-04-20T08:50:30.053Z,45.00
2023-04-20T08:51:30.007Z,45.00
2023-04-20T08:52:29.997Z,45.00
2023-04-20T08:53:29.987Z,45.00
2023-04-20T08:54:29.983Z,45.00
2023-04-20T08:55:29.987Z,45.00
2023-04-20T08:56:29.957Z,39.38
2023-04-20T08:57:29.948Z,39.38
2023-04-20T08:58:29.943Z,39.38
2023-04-20T08:59:29.934Z,45.00
2023-04-20T09:00:29.936Z,56.25
2023-04-20T09:01:35.675Z,50.62
2023-04-20T09:02:32.181Z,45.00
2023-04-20T09:03:30.011Z,50.62
2023-04-20T09:04:29.984Z,50.62
2023-04-20T09:05:30.003Z,50.62
2023-04-20T09:06:29.883Z,56.25
2023-04-20T09:07:29.864Z,67.50
2023-04-20T09:08:29.856Z,78.75
2023-04-20T09:09:29.850Z,73.12
2023-04-20T09:10:29.842Z,73.12
2023-04-20T09:11:29.823Z,67.50
2023-04-20T09:12:29.825Z,61.88
2023-04-20T09:13:29.822Z,67.50
2023-04-20T09:14:29.792Z,67.50
2023-04-20T09:15:29.797Z,78.75
2023-04-20T09:16:29.833Z,84.38
2023-04-20T09:17:29.773Z,73.12
2023-04-20T09:18:29.752Z,73.12
2023-04-20T09:19:29.746Z,78.75
2023-04-20T09:20:29.756Z,73.12
2023-04-20T09:21:29.725Z,78.75
2023-04-20T09:22:29.724Z,78.75
2023-04-20T09:23:29.717Z,84.38
2023-04-20T09:24:29.745Z,90.00
2023-04-20T09:25:29.710Z,84.38
2023-04-20T09:26:29.695Z,84.38
2023-04-20T09:27:29.686Z,84.38
2023-04-20T09:28:29.673Z,78.75
2023-04-20T09:29:29.662Z,84.38
2023-04-20T09:30:29.673Z,90.00
2023-04-20T09:31:29.651Z,90.00
2023-04-20T09:32:29.741Z,95.62
2023-04-20T09:33:29.649Z,90.00
2023-04-20T09:34:29.613Z,78.75
2023-04-20T09:35:29.615Z,61.88
2023-04-20T09:36:29.594Z,56.25
2023-04-20T09:37:29.590Z,90.00
2023-04-20T09:38:29.589Z,101.25
2023-04-20T09:39:29.575Z,101.25
2023-04-20T09:40:29.574Z,101.25
2023-04-20T09:41:29.547Z,95.62
2023-04-20T09:42:29.553Z,90.00
2023-04-20T09:43:29.533Z,78.75
2023-04-20T09:44:29.529Z,84.38
2023-04-20T09:45:29.583Z,84.38
2023-04-20T09:46:29.525Z,78.75
2023-04-20T09:47:29.526Z,78.75
2023-04-20T09:48:31.509Z,84.38
2023-04-20T09:49:29.494Z,90.00
2023-04-20T09:50:41.842Z,90.00
2023-04-20T09:51:31.476Z,84.38
2023-04-20T09:52:29.455Z,78.75
2023-04-20T09:53:29.447Z,84.38
2023-04-20T09:54:29.443Z,84.38
2023-04-20T09:55:29.437Z,90.00
2023-04-20T09:56:29.422Z,90.00
2023-04-20T09:57:29.409Z,101.25
2023-04-20T09:58:29.405Z,101.25
2023-04-20T09:59:29.390Z,95.62
2023-04-20T10:00:29.397Z,95.62
2023-04-20T10:01:29.424Z,101.25
2023-04-20T10:02:29.488Z,112.50
2023-04-20T10:03:29.479Z,151.88
2023-04-20T10:04:29.438Z,163.12
2023-04-20T10:05:29.348Z,151.88
2023-04-20T10:06:30.363Z,151.88
2023-04-20T10:07:29.328Z,163.12
2023-04-20T10:08:29.321Z,168.75
2023-04-20T10:09:29.312Z,151.88
2023-04-20T10:10:29.312Z,129.38
2023-04-20T10:11:37.118Z,118.12
2023-04-20T10:12:31.294Z,106.88
2023-04-20T10:13:29.313Z,129.38
2023-04-20T10:14:29.268Z,146.25
2023-04-20T10:15:29.276Z,123.75
2023-04-20T10:16:29.317Z,112.50
2023-04-20T10:17:29.309Z,191.25
2023-04-20T10:18:29.275Z,140.62
2023-04-20T10:19:29.227Z,151.88
2023-04-20T10:20:29.254Z,185.62
2023-04-20T10:21:29.221Z,219.38
2023-04-20T10:22:29.212Z,236.25
2023-04-20T10:23:29.187Z,241.88
2023-04-20T10:24:29.179Z,213.75
2023-04-20T10:26:01.301Z,208.12
2023-04-20T10:26:29.155Z,185.62
2023-04-20T10:27:29.152Z,180.00
2023-04-20T10:28:29.134Z,180.00
2023-04-20T10:29:29.127Z,163.12
2023-04-20T10:30:29.145Z,151.88
2023-04-20T10:31:30.170Z,180.00
2023-04-20T10:32:29.218Z,151.88
2023-04-20T10:33:29.095Z,163.12
2023-04-20T10:34:29.092Z,140.62
2023-04-20T10:35:29.090Z,129.38
2023-04-20T10:36:29.537Z,118.12
2023-04-20T10:37:29.073Z,112.50
2023-04-20T10:38:29.052Z,106.88
2023-04-20T10:39:29.043Z,112.50
2023-04-20T10:40:29.048Z,140.62
2023-04-20T10:41:29.032Z,146.25
2023-04-20T10:42:29.010Z,129.38
2023-04-20T10:43:29.004Z,146.25
2023-04-20T10:44:29.000Z,157.50
2023-04-20T10:45:28.998Z,157.50
2023-04-20T10:46:29.018Z,151.88
2023-04-20T10:47:28.988Z,151.88
2023-04-20T10:48:28.967Z,168.75
2023-04-20T10:49:28.974Z,174.38
2023-04-20T10:50:28.956Z,191.25
2023-04-20T10:51:28.946Z,174.38
2023-04-20T10:52:28.935Z,157.50
2023-04-20T10:53:28.921Z,157.50
2023-04-20T10:54:28.947Z,202.50
2023-04-20T10:55:28.919Z,247.50
2023-04-20T10:56:28.912Z,213.75
2023-04-20T10:57:29.385Z,219.38
2023-04-20T10:58:28.896Z,264.38
2023-04-20T10:59:28.868Z,213.75
2023-04-20T11:00:29.381Z,185.62
2023-04-20T11:01:28.957Z,146.25
2023-04-20T11:02:28.956Z,151.88
2023-04-20T11:03:28.964Z,163.12
2023-04-20T11:04:28.870Z,163.12
2023-04-20T11:05:28.822Z,163.12
2023-04-20T11:06:28.808Z,174.38
2023-04-20T11:07:28.813Z,326.25
2023-04-20T11:08:28.782Z,180.00
2023-04-20T11:09:28.774Z,185.62
2023-04-20T11:10:28.780Z,202.50
2023-04-20T11:11:28.763Z,286.88
2023-04-20T11:12:28.749Z,691.88
2023-04-20T11:13:28.738Z,208.12
2023-04-20T11:14:28.736Z,208.12
2023-04-20T11:15:28.734Z,230.62
2023-04-20T11:16:44.286Z,230.62
2023-04-20T11:17:30.772Z,202.50
2023-04-20T11:18:28.693Z,208.12
2023-04-20T11:19:28.794Z,230.62
2023-04-20T11:20:28.682Z,247.50
2023-04-20T11:21:28.656Z,253.12
2023-04-20T11:22:28.658Z,264.38
2023-04-20T11:23:28.651Z,292.50
2023-04-20T11:24:28.650Z,444.38
2023-04-20T11:25:28.653Z,286.88
2023-04-20T11:26:28.625Z,264.38
2023-04-20T11:27:28.616Z,298.12
2023-04-20T11:28:29.606Z,1591.88
2023-04-20T11:29:28.601Z,450.00
2023-04-20T11:30:28.624Z,303.75
2023-04-20T11:31:28.647Z,1389.38
2023-04-20T11:32:28.787Z,1299.38
2023-04-20T11:33:28.590Z,1299.38
2023-04-20T11:34:28.551Z,1243.12
2023-04-20T11:35:28.546Z,607.50
2023-04-20T11:36:28.518Z,348.75
2023-04-20T11:37:28.515Z,348.75
2023-04-20T11:38:28.504Z,1665.00
2023-04-20T11:39:28.488Z,1591.88
2023-04-20T11:40:28.571Z,596.25
2023-04-20T11:41:29.469Z,326.25
2023-04-20T11:42:28.465Z,309.38
2023-04-20T11:43:28.460Z,410.62
2023-04-20T11:44:28.465Z,1406.25
2023-04-20T11:45:28.522Z,1462.50
2023-04-20T11:46:28.525Z,326.25
2023-04-20T11:47:28.472Z,286.88
2023-04-20T11:48:28.403Z,236.25
2023-04-20T11:49:28.399Z,247.50
2023-04-20T11:50:28.400Z,303.75
2023-04-20T11:51:28.374Z,275.62
2023-04-20T11:52:28.365Z,1265.62
2023-04-20T11:53:28.357Z,247.50
2023-04-20T11:54:28.369Z,236.25
2023-04-20T11:55:28.335Z,241.88
2023-04-20T11:56:28.633Z,241.88
2023-04-20T11:57:28.312Z,230.62
2023-04-20T11:58:28.369Z,236.25
2023-04-20T11:59:28.312Z,225.00
2023-04-20T12:00:28.302Z,270.00
2023-04-20T12:01:28.282Z,703.12
2023-04-20T12:02:28.437Z,500.62
2023-04-20T12:03:28.355Z,230.62
2023-04-20T12:04:28.552Z,281.25
2023-04-20T12:05:28.245Z,1355.62
2023-04-20T12:06:28.292Z,1147.50
2023-04-20T12:07:28.230Z,365.62
2023-04-20T12:08:28.216Z,410.62
2023-04-20T12:09:28.225Z,382.50
2023-04-20T12:10:28.210Z,348.75
2023-04-20T12:11:28.221Z,371.25
2023-04-20T12:12:28.201Z,286.88
2023-04-20T12:13:28.168Z,264.38
2023-04-20T12:14:28.249Z,230.62
2023-04-20T12:15:28.153Z,247.50
2023-04-20T12:16:28.228Z,275.62
2023-04-20T12:17:28.148Z,241.88
2023-04-20T12:18:28.116Z,185.62
2023-04-20T12:19:28.124Z,157.50
2023-04-20T12:20:28.110Z,118.12
2023-04-20T12:21:28.098Z,101.25
2023-04-20T12:22:28.084Z,101.25
2023-04-20T12:23:28.071Z,106.88
2023-04-20T12:24:28.076Z,112.50
2023-04-20T12:25:28.056Z,118.12
2023-04-20T12:26:37.421Z,140.62
2023-04-20T12:27:30.052Z,180.00
2023-04-20T12:28:28.021Z,202.50
2023-04-20T12:29:28.047Z,230.62
2023-04-20T12:30:28.043Z,281.25
2023-04-20T12:31:28.023Z,326.25
2023-04-20T12:32:28.017Z,455.62
2023-04-20T12:33:27.977Z,433.12
2023-04-20T12:34:27.978Z,309.38
2023-04-20T12:35:27.966Z,303.75
2023-04-20T12:36:27.958Z,337.50
2023-04-20T12:37:27.948Z,388.12
2023-04-20T12:38:27.940Z,427.50
2023-04-20T12:39:27.931Z,376.88
2023-04-20T12:40:27.920Z,298.12
2023-04-20T12:41:27.907Z,354.38
2023-04-20T12:42:27.899Z,466.88
2023-04-20T12:43:27.889Z,590.62
2023-04-20T12:44:27.893Z,270.00
2023-04-20T12:45:27.877Z,303.75
2023-04-20T12:46:27.943Z,298.12
2023-04-20T12:47:27.906Z,264.38
2023-04-20T12:48:27.834Z,236.25
2023-04-20T12:49:28.841Z,230.62
2023-04-20T12:50:27.825Z,225.00
2023-04-20T12:51:27.809Z,225.00
2023-04-20T12:52:27.798Z,225.00
2023-04-20T12:53:27.921Z,247.50
2023-04-20T12:54:27.791Z,258.75
2023-04-20T12:55:27.775Z,225.00